sensor_id;sensor_type;location;lat;lon;timestamp;P1;durP1;ratioP1;P2;durP2;ratioP2
11037;SDS011;5572;49.540;11.932;2022-12-05T00:02:06;19.00;;;17.37;;
11037;SDS011;5572;49.540;11.932;2022-12-05T00:04:32;19.13;;;17.50;;
11037;SDS011;5572;49.540;11.932;2022-12-05T00:06:59;53.23;;;28.53;;
11037;SDS011;5572;49.540;11.932;2022-12-05T00:09:26;23.67;;;20.17;;
11037;SDS011;5572;49.540;11.932;2022-12-05T00:11:52;13.77;;;12.73;;
11037;SDS011;5572;49.540;11.932;2022-12-05T00:14:19;18.47;;;16.63;;
11037;SDS011;5572;49.540;11.932;2022-12-05T00:16:45;15.73;;;14.50;;
11037;SDS011;5572;49.540;11.932;2022-12-05T00:19:14;20.07;;;18.30;;
11037;SDS011;5572;49.540;11.932;2022-12-05T00:21:41;46.17;;;25.77;;
11037;SDS011;5572;49.540;11.932;2022-12-05T00:24:11;22.00;;;19.87;;
11037;SDS011;5572;49.540;11.932;2022-12-05T00:26:38;28.10;;;23.43;;
11037;SDS011;5572;49.540;11.932;2022-12-05T00:29:05;22.73;;;20.57;;
11037;SDS011;5572;49.540;11.932;2022-12-05T00:31:32;19.80;;;18.03;;
11037;SDS011;5572;49.540;11.932;2022-12-05T00:33:59;19.37;;;17.77;;
11037;SDS011;5572;49.540;11.932;2022-12-05T00:36:28;21.70;;;19.63;;
11037;SDS011;5572;49.540;11.932;2022-12-05T00:38:57;17.87;;;16.47;;
11037;SDS011;5572;49.540;11.932;2022-12-05T00:41:25;17.60;;;16.23;;
11037;SDS011;5572;49.540;11.932;2022-12-05T00:43:54;26.17;;;21.63;;
11037;SDS011;5572;49.540;11.932;2022-12-05T00:46:23;27.20;;;21.93;;
11037;SDS011;5572;49.540;11.932;2022-12-05T00:48:52;18.00;;;16.37;;
11037;SDS011;5572;49.540;11.932;2022-12-05T00:51:21;16.20;;;14.87;;
11037;SDS011;5572;49.540;11.932;2022-12-05T00:53:52;48.73;;;26.90;;
11037;SDS011;5572;49.540;11.932;2022-12-05T00:56:20;25.70;;;20.70;;
11037;SDS011;5572;49.540;11.932;2022-12-05T00:58:48;23.80;;;16.73;;
11037;SDS011;5572;49.540;11.932;2022-12-05T01:01:18;16.00;;;14.77;;
11037;SDS011;5572;49.540;11.932;2022-12-05T01:03:46;16.40;;;15.13;;
11037;SDS011;5572;49.540;11.932;2022-12-05T01:06:14;34.77;;;22.20;;
11037;SDS011;5572;49.540;11.932;2022-12-05T01:08:41;17.73;;;16.03;;
11037;SDS011;5572;49.540;11.932;2022-12-05T01:11:09;19.23;;;17.60;;
11037;SDS011;5572;49.540;11.932;2022-12-05T01:13:39;17.00;;;15.70;;
11037;SDS011;5572;49.540;11.932;2022-12-05T01:16:05;21.10;;;19.17;;
11037;SDS011;5572;49.540;11.932;2022-12-05T01:18:32;23.33;;;17.47;;
11037;SDS011;5572;49.540;11.932;2022-12-05T01:20:58;28.13;;;23.50;;
11037;SDS011;5572;49.540;11.932;2022-12-05T01:23:25;20.30;;;18.53;;
11037;SDS011;5572;49.540;11.932;2022-12-05T01:25:52;15.10;;;13.97;;
11037;SDS011;5572;49.540;11.932;2022-12-05T01:28:20;31.43;;;22.70;;
11037;SDS011;5572;49.540;11.932;2022-12-05T01:30:48;17.40;;;15.87;;
11037;SDS011;5572;49.540;11.932;2022-12-05T01:33:15;16.50;;;15.30;;
11037;SDS011;5572;49.540;11.932;2022-12-05T01:35:43;17.63;;;16.10;;
11037;SDS011;5572;49.540;11.932;2022-12-05T01:38:10;17.33;;;16.00;;
11037;SDS011;5572;49.540;11.932;2022-12-05T01:40:38;16.27;;;15.03;;
11037;SDS011;5572;49.540;11.932;2022-12-05T01:43:05;17.17;;;15.80;;
11037;SDS011;5572;49.540;11.932;2022-12-05T01:45:41;18.30;;;16.07;;
11037;SDS011;5572;49.540;11.932;2022-12-05T01:48:10;22.20;;;19.83;;
11037;SDS011;5572;49.540;11.932;2022-12-05T01:50:41;20.50;;;18.77;;
11037;SDS011;5572;49.540;11.932;2022-12-05T01:53:09;15.43;;;14.27;;
11037;SDS011;5572;49.540;11.932;2022-12-05T01:55:36;16.57;;;15.27;;
11037;SDS011;5572;49.540;11.932;2022-12-05T01:58:04;18.47;;;16.83;;
11037;SDS011;5572;49.540;11.932;2022-12-05T02:00:31;18.33;;;16.73;;
11037;SDS011;5572;49.540;11.932;2022-12-05T02:03:01;14.87;;;13.77;;
11037;SDS011;5572;49.540;11.932;2022-12-05T02:05:31;15.07;;;13.93;;
11037;SDS011;5572;49.540;11.932;2022-12-05T02:08:00;15.37;;;14.27;;
11037;SDS011;5572;49.540;11.932;2022-12-05T02:10:29;30.30;;;23.63;;
11037;SDS011;5572;49.540;11.932;2022-12-05T02:13:03;15.60;;;14.40;;
11037;SDS011;5572;49.540;11.932;2022-12-05T02:15:36;16.83;;;15.57;;
11037;SDS011;5572;49.540;11.932;2022-12-05T02:18:12;21.00;;;18.80;;
11037;SDS011;5572;49.540;11.932;2022-12-05T02:20:48;16.90;;;15.53;;
11037;SDS011;5572;49.540;11.932;2022-12-05T02:23:45;21.43;;;19.17;;
11037;SDS011;5572;49.540;11.932;2022-12-05T02:29:44;14.73;;;13.67;;
11037;SDS011;5572;49.540;11.932;2022-12-05T02:35:28;15.80;;;14.57;;
11037;SDS011;5572;49.540;11.932;2022-12-05T02:38:06;27.77;;;19.27;;
11037;SDS011;5572;49.540;11.932;2022-12-05T02:40:43;19.10;;;17.43;;
11037;SDS011;5572;49.540;11.932;2022-12-05T02:43:16;17.53;;;15.97;;
11037;SDS011;5572;49.540;11.932;2022-12-05T02:45:47;15.47;;;14.33;;
11037;SDS011;5572;49.540;11.932;2022-12-05T02:48:18;17.07;;;15.80;;
11037;SDS011;5572;49.540;11.932;2022-12-05T02:50:46;17.30;;;16.00;;
11037;SDS011;5572;49.540;11.932;2022-12-05T02:53:14;15.47;;;14.33;;
11037;SDS011;5572;49.540;11.932;2022-12-05T02:55:43;14.50;;;13.43;;
11037;SDS011;5572;49.540;11.932;2022-12-05T02:58:13;14.30;;;13.27;;
11037;SDS011;5572;49.540;11.932;2022-12-05T03:00:45;16.47;;;15.27;;
11037;SDS011;5572;49.540;11.932;2022-12-05T03:03:16;16.37;;;15.13;;
11037;SDS011;5572;49.540;11.932;2022-12-05T03:05:46;15.43;;;14.33;;
11037;SDS011;5572;49.540;11.932;2022-12-05T03:08:17;14.80;;;13.77;;
11037;SDS011;5572;49.540;11.932;2022-12-05T03:10:48;15.97;;;14.80;;
11037;SDS011;5572;49.540;11.932;2022-12-05T03:13:18;15.80;;;14.63;;
11037;SDS011;5572;49.540;11.932;2022-12-05T03:15:52;17.60;;;16.30;;
11037;SDS011;5572;49.540;11.932;2022-12-05T03:18:25;16.33;;;15.10;;
11037;SDS011;5572;49.540;11.932;2022-12-05T03:20:56;17.80;;;16.13;;
11037;SDS011;5572;49.540;11.932;2022-12-05T03:23:27;18.73;;;17.17;;
11037;SDS011;5572;49.540;11.932;2022-12-05T03:25:59;19.80;;;17.37;;
11037;SDS011;5572;49.540;11.932;2022-12-05T03:28:37;18.77;;;17.07;;
11037;SDS011;5572;49.540;11.932;2022-12-05T03:31:13;14.83;;;13.80;;
11037;SDS011;5572;49.540;11.932;2022-12-05T03:33:45;15.83;;;14.70;;
11037;SDS011;5572;49.540;11.932;2022-12-05T03:36:15;16.57;;;15.33;;
11037;SDS011;5572;49.540;11.932;2022-12-05T03:38:46;15.73;;;14.57;;
11037;SDS011;5572;49.540;11.932;2022-12-05T03:41:19;17.23;;;16.00;;
11037;SDS011;5572;49.540;11.932;2022-12-05T03:43:51;19.60;;;17.97;;
11037;SDS011;5572;49.540;11.932;2022-12-05T03:46:23;18.57;;;16.67;;
11037;SDS011;5572;49.540;11.932;2022-12-05T03:48:54;18.83;;;17.40;;
11037;SDS011;5572;49.540;11.932;2022-12-05T03:51:26;17.33;;;16.00;;
11037;SDS011;5572;49.540;11.932;2022-12-05T03:54:03;17.93;;;16.47;;
11037;SDS011;5572;49.540;11.932;2022-12-05T03:56:34;24.23;;;16.27;;
11037;SDS011;5572;49.540;11.932;2022-12-05T03:59:06;15.97;;;14.77;;
11037;SDS011;5572;49.540;11.932;2022-12-05T04:01:39;17.10;;;15.47;;
11037;SDS011;5572;49.540;11.932;2022-12-05T04:04:09;18.10;;;16.60;;
11037;SDS011;5572;49.540;11.932;2022-12-05T04:06:40;17.53;;;16.23;;
11037;SDS011;5572;49.540;11.932;2022-12-05T04:09:13;14.97;;;13.87;;
11037;SDS011;5572;49.540;11.932;2022-12-05T04:11:46;17.10;;;15.83;;
11037;SDS011;5572;49.540;11.932;2022-12-05T04:14:17;15.70;;;14.53;;
11037;SDS011;5572;49.540;11.932;2022-12-05T04:16:49;15.90;;;14.77;;
11037;SDS011;5572;49.540;11.932;2022-12-05T04:19:31;19.90;;;17.07;;
11037;SDS011;5572;49.540;11.932;2022-12-05T04:22:20;16.20;;;15.03;;
11037;SDS011;5572;49.540;11.932;2022-12-05T04:24:49;17.17;;;15.97;;
11037;SDS011;5572;49.540;11.932;2022-12-05T04:27:36;15.67;;;14.57;;
11037;SDS011;5572;49.540;11.932;2022-12-05T04:30:08;15.93;;;14.80;;
11037;SDS011;5572;49.540;11.932;2022-12-05T04:32:39;15.60;;;14.43;;
11037;SDS011;5572;49.540;11.932;2022-12-05T04:35:11;15.13;;;14.07;;
11037;SDS011;5572;49.540;11.932;2022-12-05T04:37:43;15.63;;;14.43;;
11037;SDS011;5572;49.540;11.932;2022-12-05T04:40:16;20.40;;;18.87;;
11037;SDS011;5572;49.540;11.932;2022-12-05T04:42:46;17.60;;;16.30;;
11037;SDS011;5572;49.540;11.932;2022-12-05T04:45:16;15.17;;;14.07;;
11037;SDS011;5572;49.540;11.932;2022-12-05T04:47:47;16.70;;;15.37;;
11037;SDS011;5572;49.540;11.932;2022-12-05T04:50:19;17.40;;;16.17;;
11037;SDS011;5572;49.540;11.932;2022-12-05T04:52:49;18.63;;;17.23;;
11037;SDS011;5572;49.540;11.932;2022-12-05T04:55:21;15.90;;;14.73;;
11037;SDS011;5572;49.540;11.932;2022-12-05T04:57:52;20.87;;;18.77;;
11037;SDS011;5572;49.540;11.932;2022-12-05T05:00:26;32.17;;;29.67;;
11037;SDS011;5572;49.540;11.932;2022-12-05T05:16:12;33.20;;;26.17;;
11037;SDS011;5572;49.540;11.932;2022-12-05T05:18:43;22.37;;;20.57;;
11037;SDS011;5572;49.540;11.932;2022-12-05T05:21:13;20.63;;;18.83;;
11037;SDS011;5572;49.540;11.932;2022-12-05T05:23:43;21.07;;;19.07;;
11037;SDS011;5572;49.540;11.932;2022-12-05T05:26:10;22.13;;;20.23;;
11037;SDS011;5572;49.540;11.932;2022-12-05T05:28:37;22.37;;;20.47;;
11037;SDS011;5572;49.540;11.932;2022-12-05T05:31:04;28.30;;;22.60;;
11037;SDS011;5572;49.540;11.932;2022-12-05T05:33:32;22.70;;;20.77;;
11037;SDS011;5572;49.540;11.932;2022-12-05T05:36:00;20.03;;;18.47;;
11037;SDS011;5572;49.540;11.932;2022-12-05T05:38:29;20.67;;;18.97;;
11037;SDS011;5572;49.540;11.932;2022-12-05T05:40:57;19.23;;;17.70;;
11037;SDS011;5572;49.540;11.932;2022-12-05T05:43:23;23.23;;;20.50;;
11037;SDS011;5572;49.540;11.932;2022-12-05T05:45:50;26.73;;;20.60;;
11037;SDS011;5572;49.540;11.932;2022-12-05T05:48:16;18.73;;;17.23;;
11037;SDS011;5572;49.540;11.932;2022-12-05T05:50:43;21.43;;;19.40;;
11037;SDS011;5572;49.540;11.932;2022-12-05T05:53:09;16.23;;;15.03;;
11037;SDS011;5572;49.540;11.932;2022-12-05T05:55:37;21.43;;;19.67;;
11037;SDS011;5572;49.540;11.932;2022-12-05T05:58:05;22.27;;;20.30;;
11037;SDS011;5572;49.540;11.932;2022-12-05T06:00:32;21.67;;;19.93;;
11037;SDS011;5572;49.540;11.932;2022-12-05T06:02:59;22.03;;;20.20;;
11037;SDS011;5572;49.540;11.932;2022-12-05T06:05:25;20.60;;;18.90;;
11037;SDS011;5572;49.540;11.932;2022-12-05T06:07:52;19.63;;;18.10;;
11037;SDS011;5572;49.540;11.932;2022-12-05T06:10:18;20.97;;;19.27;;
11037;SDS011;5572;49.540;11.932;2022-12-05T06:12:45;21.10;;;19.10;;
11037;SDS011;5572;49.540;11.932;2022-12-05T06:15:13;20.93;;;19.20;;
11037;SDS011;5572;49.540;11.932;2022-12-05T06:17:40;20.77;;;18.93;;
11037;SDS011;5572;49.540;11.932;2022-12-05T06:20:07;23.03;;;21.20;;
11037;SDS011;5572;49.540;11.932;2022-12-05T06:22:34;21.83;;;19.97;;
11037;SDS011;5572;49.540;11.932;2022-12-05T06:25:01;18.13;;;16.73;;
11037;SDS011;5572;49.540;11.932;2022-12-05T06:27:28;22.50;;;20.23;;
11037;SDS011;5572;49.540;11.932;2022-12-05T06:29:55;21.43;;;19.67;;
11037;SDS011;5572;49.540;11.932;2022-12-05T06:32:23;19.53;;;17.93;;
11037;SDS011;5572;49.540;11.932;2022-12-05T06:34:50;27.83;;;20.73;;
11037;SDS011;5572;49.540;11.932;2022-12-05T06:37:17;22.43;;;20.70;;
11037;SDS011;5572;49.540;11.932;2022-12-05T06:39:43;21.43;;;19.43;;
11037;SDS011;5572;49.540;11.932;2022-12-05T06:42:10;22.33;;;20.53;;
11037;SDS011;5572;49.540;11.932;2022-12-05T06:44:37;21.08;;;19.27;;
11037;SDS011;5572;49.540;11.932;2022-12-05T06:47:04;19.57;;;18.03;;
11037;SDS011;5572;49.540;11.932;2022-12-05T06:49:32;21.13;;;19.40;;
11037;SDS011;5572;49.540;11.932;2022-12-05T06:51:59;20.13;;;18.43;;
11037;SDS011;5572;49.540;11.932;2022-12-05T06:54:26;13.57;;;9.77;;
11037;SDS011;5572;49.540;11.932;2022-12-05T06:56:52;97.40;;;87.83;;
11037;SDS011;5572;49.540;11.932;2022-12-05T06:59:19;70.87;;;63.70;;
11037;SDS011;5572;49.540;11.932;2022-12-05T07:01:46;22.33;;;15.57;;
11037;SDS011;5572;49.540;11.932;2022-12-05T07:04:12;9.07;;;5.27;;
11037;SDS011;5572;49.540;11.932;2022-12-05T07:06:42;175.87;;;158.47;;
11037;SDS011;5572;49.540;11.932;2022-12-05T07:09:10;225.93;;;203.53;;
11037;SDS011;5572;49.540;11.932;2022-12-05T07:11:37;177.03;;;157.80;;
11037;SDS011;5572;49.540;11.932;2022-12-05T07:14:04;162.83;;;138.40;;
11037;SDS011;5572;49.540;11.932;2022-12-05T07:16:33;122.23;;;88.43;;
11037;SDS011;5572;49.540;11.932;2022-12-05T07:19:00;97.03;;;70.23;;
11037;SDS011;5572;49.540;11.932;2022-12-05T07:21:27;6.80;;;4.70;;
11037;SDS011;5572;49.540;11.932;2022-12-05T07:23:55;40.60;;;33.63;;
11037;SDS011;5572;49.540;11.932;2022-12-05T07:26:22;25.93;;;20.17;;
11037;SDS011;5572;49.540;11.932;2022-12-05T07:28:49;115.70;;;104.60;;
11037;SDS011;5572;49.540;11.932;2022-12-05T07:31:17;214.50;;;191.83;;
11037;SDS011;5572;49.540;11.932;2022-12-05T07:33:46;181.83;;;163.13;;
11037;SDS011;5572;49.540;11.932;2022-12-05T07:36:14;111.07;;;94.97;;
11037;SDS011;5572;49.540;11.932;2022-12-05T07:38:43;116.10;;;103.70;;
11037;SDS011;5572;49.540;11.932;2022-12-05T07:41:13;82.07;;;61.77;;
11037;SDS011;5572;49.540;11.932;2022-12-05T07:43:42;10.47;;;6.60;;
11037;SDS011;5572;49.540;11.932;2022-12-05T07:46:09;17.90;;;9.00;;
11037;SDS011;5572;49.540;11.932;2022-12-05T07:48:36;21.33;;;15.20;;
11037;SDS011;5572;49.540;11.932;2022-12-05T07:51:04;11.93;;;7.70;;
11037;SDS011;5572;49.540;11.932;2022-12-05T07:53:32;16.50;;;9.00;;
11037;SDS011;5572;49.540;11.932;2022-12-05T07:55:59;22.67;;;11.97;;
11037;SDS011;5572;49.540;11.932;2022-12-05T07:58:28;11.30;;;7.43;;
11037;SDS011;5572;49.540;11.932;2022-12-05T08:00:55;19.07;;;10.30;;
11037;SDS011;5572;49.540;11.932;2022-12-05T08:03:22;11.73;;;7.60;;
11037;SDS011;5572;49.540;11.932;2022-12-05T08:05:48;12.10;;;7.87;;
11037;SDS011;5572;49.540;11.932;2022-12-05T08:08:15;14.37;;;7.63;;
11037;SDS011;5572;49.540;11.932;2022-12-05T08:10:42;20.20;;;9.87;;
11037;SDS011;5572;49.540;11.932;2022-12-05T08:13:08;16.90;;;9.17;;
11037;SDS011;5572;49.540;11.932;2022-12-05T08:15:36;15.30;;;9.17;;
11037;SDS011;5572;49.540;11.932;2022-12-05T08:18:03;18.30;;;9.00;;
11037;SDS011;5572;49.540;11.932;2022-12-05T08:20:29;13.00;;;7.63;;
11037;SDS011;5572;49.540;11.932;2022-12-05T08:22:56;13.73;;;7.40;;
11037;SDS011;5572;49.540;11.932;2022-12-05T08:25:23;15.90;;;8.00;;
11037;SDS011;5572;49.540;11.932;2022-12-05T08:27:49;11.70;;;7.40;;
11037;SDS011;5572;49.540;11.932;2022-12-05T08:30:16;16.13;;;7.90;;
11037;SDS011;5572;49.540;11.932;2022-12-05T08:32:44;19.93;;;12.93;;
11037;SDS011;5572;49.540;11.932;2022-12-05T08:35:11;23.70;;;13.57;;
11037;SDS011;5572;49.540;11.932;2022-12-05T08:37:38;15.97;;;9.90;;
11037;SDS011;5572;49.540;11.932;2022-12-05T08:40:05;10.70;;;6.77;;
11037;SDS011;5572;49.540;11.932;2022-12-05T08:42:32;10.03;;;6.57;;
11037;SDS011;5572;49.540;11.932;2022-12-05T08:44:59;7.77;;;6.23;;
11037;SDS011;5572;49.540;11.932;2022-12-05T08:47:25;18.80;;;10.23;;
11037;SDS011;5572;49.540;11.932;2022-12-05T08:49:54;15.23;;;8.87;;
11037;SDS011;5572;49.540;11.932;2022-12-05T08:52:20;21.57;;;13.20;;
11037;SDS011;5572;49.540;11.932;2022-12-05T08:54:47;19.93;;;11.43;;
11037;SDS011;5572;49.540;11.932;2022-12-05T08:57:14;15.07;;;10.13;;
11037;SDS011;5572;49.540;11.932;2022-12-05T08:59:40;12.77;;;8.07;;
11037;SDS011;5572;49.540;11.932;2022-12-05T09:02:07;13.90;;;8.20;;
11037;SDS011;5572;49.540;11.932;2022-12-05T09:04:34;13.73;;;7.43;;
11037;SDS011;5572;49.540;11.932;2022-12-05T09:07:02;8.63;;;5.23;;
11037;SDS011;5572;49.540;11.932;2022-12-05T09:09:30;9.43;;;5.40;;
11037;SDS011;5572;49.540;11.932;2022-12-05T09:11:57;7.17;;;5.40;;
11037;SDS011;5572;49.540;11.932;2022-12-05T09:14:24;8.63;;;5.23;;
11037;SDS011;5572;49.540;11.932;2022-12-05T09:16:56;10.60;;;5.60;;
11037;SDS011;5572;49.540;11.932;2022-12-05T09:19:24;8.67;;;5.90;;
11037;SDS011;5572;49.540;11.932;2022-12-05T09:21:51;9.77;;;5.50;;
11037;SDS011;5572;49.540;11.932;2022-12-05T09:24:19;6.90;;;5.30;;
11037;SDS011;5572;49.540;11.932;2022-12-05T09:26:46;8.13;;;5.23;;
11037;SDS011;5572;49.540;11.932;2022-12-05T09:29:13;8.47;;;5.00;;
11037;SDS011;5572;49.540;11.932;2022-12-05T09:31:40;6.57;;;4.83;;
11037;SDS011;5572;49.540;11.932;2022-12-05T09:34:07;24.37;;;11.73;;
11037;SDS011;5572;49.540;11.932;2022-12-05T09:36:33;19.50;;;8.37;;
11037;SDS011;5572;49.540;11.932;2022-12-05T09:39:03;39.60;;;17.03;;
11037;SDS011;5572;49.540;11.932;2022-12-05T09:41:41;25.10;;;12.50;;
11037;SDS011;5572;49.540;11.932;2022-12-05T09:44:37;11.03;;;7.73;;
11037;SDS011;5572;49.540;11.932;2022-12-05T09:47:10;16.00;;;7.20;;
11037;SDS011;5572;49.540;11.932;2022-12-05T09:49:48;20.70;;;10.57;;
11037;SDS011;5572;49.540;11.932;2022-12-05T09:52:21;12.60;;;7.90;;
11037;SDS011;5572;49.540;11.932;2022-12-05T09:54:52;10.07;;;6.77;;
11037;SDS011;5572;49.540;11.932;2022-12-05T09:57:25;10.60;;;6.77;;
11037;SDS011;5572;49.540;11.932;2022-12-05T09:59:59;11.97;;;6.73;;
11037;SDS011;5572;49.540;11.932;2022-12-05T10:02:29;13.13;;;8.47;;
11037;SDS011;5572;49.540;11.932;2022-12-05T10:05:05;15.00;;;9.53;;
11037;SDS011;5572;49.540;11.932;2022-12-05T10:07:36;13.40;;;8.17;;
11037;SDS011;5572;49.540;11.932;2022-12-05T10:10:20;14.73;;;7.27;;
11037;SDS011;5572;49.540;11.932;2022-12-05T10:12:58;11.10;;;7.10;;
11037;SDS011;5572;49.540;11.932;2022-12-05T10:15:34;16.63;;;8.13;;
11037;SDS011;5572;49.540;11.932;2022-12-05T10:18:08;14.67;;;8.57;;
11037;SDS011;5572;49.540;11.932;2022-12-05T10:20:43;14.47;;;8.13;;
11037;SDS011;5572;49.540;11.932;2022-12-05T10:23:14;15.77;;;8.57;;
11037;SDS011;5572;49.540;11.932;2022-12-05T10:25:45;17.63;;;8.73;;
11037;SDS011;5572;49.540;11.932;2022-12-05T10:28:14;15.67;;;9.30;;
11037;SDS011;5572;49.540;11.932;2022-12-05T10:30:52;15.37;;;8.67;;
11037;SDS011;5572;49.540;11.932;2022-12-05T10:33:25;14.90;;;7.87;;
11037;SDS011;5572;49.540;11.932;2022-12-05T10:36:00;39.53;;;33.40;;
11037;SDS011;5572;49.540;11.932;2022-12-05T10:38:34;11.70;;;6.57;;
11037;SDS011;5572;49.540;11.932;2022-12-05T10:41:02;11.07;;;7.33;;
11037;SDS011;5572;49.540;11.932;2022-12-05T10:43:33;10.87;;;7.37;;
11037;SDS011;5572;49.540;11.932;2022-12-05T10:46:02;9.90;;;7.07;;
11037;SDS011;5572;49.540;11.932;2022-12-05T10:48:33;20.83;;;12.47;;
11037;SDS011;5572;49.540;11.932;2022-12-05T10:51:01;11.37;;;7.07;;
11037;SDS011;5572;49.540;11.932;2022-12-05T10:53:30;13.53;;;8.03;;
11037;SDS011;5572;49.540;11.932;2022-12-05T10:56:05;14.93;;;8.97;;
11037;SDS011;5572;49.540;11.932;2022-12-05T10:59:07;13.60;;;8.13;;
11037;SDS011;5572;49.540;11.932;2022-12-05T11:01:36;15.87;;;8.83;;
11037;SDS011;5572;49.540;11.932;2022-12-05T11:04:11;11.73;;;7.83;;
11037;SDS011;5572;49.540;11.932;2022-12-05T11:06:50;18.63;;;9.03;;
11037;SDS011;5572;49.540;11.932;2022-12-05T11:09:20;12.40;;;8.17;;
11037;SDS011;5572;49.540;11.932;2022-12-05T11:14:54;15.90;;;10.13;;
11037;SDS011;5572;49.540;11.932;2022-12-05T11:17:24;12.30;;;7.87;;
11037;SDS011;5572;49.540;11.932;2022-12-05T11:19:52;23.23;;;10.33;;
11037;SDS011;5572;49.540;11.932;2022-12-05T11:22:18;20.17;;;11.43;;
11037;SDS011;5572;49.540;11.932;2022-12-05T11:24:47;15.43;;;10.00;;
11037;SDS011;5572;49.540;11.932;2022-12-05T11:27:20;18.77;;;10.20;;
11037;SDS011;5572;49.540;11.932;2022-12-05T11:29:57;14.70;;;9.90;;
11037;SDS011;5572;49.540;11.932;2022-12-05T11:32:26;22.30;;;12.17;;
11037;SDS011;5572;49.540;11.932;2022-12-05T11:34:57;14.37;;;9.40;;
11037;SDS011;5572;49.540;11.932;2022-12-05T11:37:30;16.90;;;10.00;;
11037;SDS011;5572;49.540;11.932;2022-12-05T11:40:00;16.07;;;9.20;;
11037;SDS011;5572;49.540;11.932;2022-12-05T11:42:31;13.47;;;8.00;;
11037;SDS011;5572;49.540;11.932;2022-12-05T11:45:18;16.40;;;10.13;;
11037;SDS011;5572;49.540;11.932;2022-12-05T11:48:03;18.20;;;9.83;;
11037;SDS011;5572;49.540;11.932;2022-12-05T11:50:51;16.40;;;9.83;;
11037;SDS011;5572;49.540;11.932;2022-12-05T11:53:39;15.00;;;9.60;;
11037;SDS011;5572;49.540;11.932;2022-12-05T11:56:21;15.03;;;8.83;;
11037;SDS011;5572;49.540;11.932;2022-12-05T11:59:07;14.47;;;9.13;;
11037;SDS011;5572;49.540;11.932;2022-12-05T12:01:57;12.73;;;8.03;;
11037;SDS011;5572;49.540;11.932;2022-12-05T12:04:43;15.10;;;6.90;;
11037;SDS011;5572;49.540;11.932;2022-12-05T12:07:19;10.00;;;6.93;;
11037;SDS011;5572;49.540;11.932;2022-12-05T12:09:52;12.73;;;7.70;;
11037;SDS011;5572;49.540;11.932;2022-12-05T12:12:36;10.17;;;6.33;;
11037;SDS011;5572;49.540;11.932;2022-12-05T12:15:22;12.37;;;5.90;;
11037;SDS011;5572;49.540;11.932;2022-12-05T12:18:02;14.00;;;6.03;;
11037;SDS011;5572;49.540;11.932;2022-12-05T12:20:39;7.87;;;5.90;;
11037;SDS011;5572;49.540;11.932;2022-12-05T12:23:21;10.87;;;5.73;;
11037;SDS011;5572;49.540;11.932;2022-12-05T12:26:05;8.60;;;4.93;;
11037;SDS011;5572;49.540;11.932;2022-12-05T12:28:37;7.87;;;4.80;;
11037;SDS011;5572;49.540;11.932;2022-12-05T12:31:15;7.50;;;5.00;;
11037;SDS011;5572;49.540;11.932;2022-12-05T12:33:53;5.60;;;4.10;;
11037;SDS011;5572;49.540;11.932;2022-12-05T12:36:30;9.47;;;4.33;;
11037;SDS011;5572;49.540;11.932;2022-12-05T12:39:09;6.43;;;4.53;;
11037;SDS011;5572;49.540;11.932;2022-12-05T12:41:51;5.73;;;4.43;;
11037;SDS011;5572;49.540;11.932;2022-12-05T12:44:43;6.20;;;4.63;;
11037;SDS011;5572;49.540;11.932;2022-12-05T12:47:23;7.63;;;5.10;;
11037;SDS011;5572;49.540;11.932;2022-12-05T12:50:09;7.10;;;4.30;;
11037;SDS011;5572;49.540;11.932;2022-12-05T12:52:45;5.97;;;4.53;;
11037;SDS011;5572;49.540;11.932;2022-12-05T12:55:27;7.60;;;4.63;;
11037;SDS011;5572;49.540;11.932;2022-12-05T12:58:03;6.03;;;4.73;;
11037;SDS011;5572;49.540;11.932;2022-12-05T13:00:45;6.23;;;4.20;;
11037;SDS011;5572;49.540;11.932;2022-12-05T13:03:20;9.93;;;5.27;;
11037;SDS011;5572;49.540;11.932;2022-12-05T13:05:52;8.27;;;5.00;;
11037;SDS011;5572;49.540;11.932;2022-12-05T13:08:23;26.67;;;14.67;;
11037;SDS011;5572;49.540;11.932;2022-12-05T13:10:55;22.83;;;9.40;;
11037;SDS011;5572;49.540;11.932;2022-12-05T13:13:26;73.20;;;33.90;;
11037;SDS011;5572;49.540;11.932;2022-12-05T13:16:00;11.93;;;6.07;;
11037;SDS011;5572;49.540;11.932;2022-12-05T13:18:31;10.97;;;7.00;;
11037;SDS011;5572;49.540;11.932;2022-12-05T13:21:01;8.40;;;5.90;;
11037;SDS011;5572;49.540;11.932;2022-12-05T13:23:31;9.30;;;6.20;;
11037;SDS011;5572;49.540;11.932;2022-12-05T13:26:06;15.23;;;7.90;;
11037;SDS011;5572;49.540;11.932;2022-12-05T13:28:35;15.33;;;8.60;;
11037;SDS011;5572;49.540;11.932;2022-12-05T13:31:06;14.07;;;8.80;;
11037;SDS011;5572;49.540;11.932;2022-12-05T13:33:34;6.43;;;4.90;;
11037;SDS011;5572;49.540;11.932;2022-12-05T13:36:10;9.63;;;5.73;;
11037;SDS011;5572;49.540;11.932;2022-12-05T13:38:56;8.27;;;5.77;;
11037;SDS011;5572;49.540;11.932;2022-12-05T13:41:42;6.73;;;4.27;;
11037;SDS011;5572;49.540;11.932;2022-12-05T13:44:30;4.90;;;4.27;;
11037;SDS011;5572;49.540;11.932;2022-12-05T13:47:01;6.23;;;4.50;;
11037;SDS011;5572;49.540;11.932;2022-12-05T13:49:33;9.40;;;6.10;;
11037;SDS011;5572;49.540;11.932;2022-12-05T13:52:08;17.47;;;8.37;;
11037;SDS011;5572;49.540;11.932;2022-12-05T13:54:40;12.80;;;6.80;;
11037;SDS011;5572;49.540;11.932;2022-12-05T14:00:19;5.87;;;4.53;;
11037;SDS011;5572;49.540;11.932;2022-12-05T14:02:48;10.57;;;7.20;;
11037;SDS011;5572;49.540;11.932;2022-12-05T14:11:15;7.17;;;5.33;;
11037;SDS011;5572;49.540;11.932;2022-12-05T14:13:44;13.23;;;6.53;;
11037;SDS011;5572;49.540;11.932;2022-12-05T14:19:13;6.77;;;4.80;;
11037;SDS011;5572;49.540;11.932;2022-12-05T14:21:52;10.47;;;6.83;;
11037;SDS011;5572;49.540;11.932;2022-12-05T14:24:29;8.10;;;5.40;;
11037;SDS011;5572;49.540;11.932;2022-12-05T14:27:04;12.07;;;7.20;;
11037;SDS011;5572;49.540;11.932;2022-12-05T14:29:37;17.37;;;8.37;;
11037;SDS011;5572;49.540;11.932;2022-12-05T14:32:17;26.53;;;14.10;;
11037;SDS011;5572;49.540;11.932;2022-12-05T14:34:55;14.37;;;8.17;;
11037;SDS011;5572;49.540;11.932;2022-12-05T14:37:25;10.40;;;5.70;;
11037;SDS011;5572;49.540;11.932;2022-12-05T14:39:55;9.00;;;5.33;;
11037;SDS011;5572;49.540;11.932;2022-12-05T14:42:26;15.40;;;10.10;;
11037;SDS011;5572;49.540;11.932;2022-12-05T14:45:00;26.23;;;13.13;;
11037;SDS011;5572;49.540;11.932;2022-12-05T14:47:29;65.93;;;31.63;;
11037;SDS011;5572;49.540;11.932;2022-12-05T14:49:59;9.63;;;5.80;;
11037;SDS011;5572;49.540;11.932;2022-12-05T14:56:12;13.90;;;9.60;;
11037;SDS011;5572;49.540;11.932;2022-12-05T14:58:44;13.60;;;8.30;;
11037;SDS011;5572;49.540;11.932;2022-12-05T15:01:17;13.10;;;6.73;;
11037;SDS011;5572;49.540;11.932;2022-12-05T15:04:02;10.93;;;6.97;;
11037;SDS011;5572;49.540;11.932;2022-12-05T15:06:36;7.20;;;5.37;;
11037;SDS011;5572;49.540;11.932;2022-12-05T15:09:20;7.00;;;5.43;;
11037;SDS011;5572;49.540;11.932;2022-12-05T15:11:58;7.27;;;5.27;;
11037;SDS011;5572;49.540;11.932;2022-12-05T15:14:27;10.40;;;5.60;;
11037;SDS011;5572;49.540;11.932;2022-12-05T15:16:58;11.70;;;6.50;;
11037;SDS011;5572;49.540;11.932;2022-12-05T15:19:28;9.40;;;5.83;;
11037;SDS011;5572;49.540;11.932;2022-12-05T15:22:05;7.77;;;5.40;;
11037;SDS011;5572;49.540;11.932;2022-12-05T15:24:35;10.50;;;6.13;;
11037;SDS011;5572;49.540;11.932;2022-12-05T15:27:03;7.40;;;5.57;;
11037;SDS011;5572;49.540;11.932;2022-12-05T15:29:33;7.67;;;5.67;;
11037;SDS011;5572;49.540;11.932;2022-12-05T15:32:01;7.60;;;5.60;;